createdAt,value
2022-08-20T00:01:20.456Z,11.38
2022-08-20T00:03:50.238Z,11.02
2022-08-20T00:06:24.941Z,10.63
2022-08-20T00:08:54.031Z,11.20
2022-08-20T00:11:25.582Z,10.75
2022-08-20T00:14:00.602Z,11.02
2022-08-20T00:16:36.149Z,11.07
2022-08-20T00:19:19.557Z,10.80
2022-08-20T00:21:50.146Z,11.25
2022-08-20T00:24:22.632Z,11.32
2022-08-20T00:26:58.269Z,12.13
2022-08-20T00:29:39.216Z,11.20
2022-08-20T00:32:07.626Z,10.80
2022-08-20T00:34:39.759Z,10.70
2022-08-20T00:37:12.120Z,11.30
2022-08-20T00:39:40.275Z,11.73
2022-08-20T00:42:12.299Z,11.18
2022-08-20T00:44:49.032Z,11.48
2022-08-20T00:47:17.439Z,11.45
2022-08-20T00:52:23.025Z,11.77
2022-08-20T00:54:57.099Z,12.02
2022-08-20T00:57:54.824Z,11.07
2022-08-20T01:00:33.244Z,11.82
2022-08-20T01:03:06.228Z,11.98
2022-08-20T01:05:45.809Z,11.48
2022-08-20T01:08:17.704Z,11.95
2022-08-20T01:11:02.026Z,12.23
2022-08-20T01:13:33.737Z,11.93
2022-08-20T01:16:04.465Z,11.95
2022-08-20T01:18:33.003Z,11.85
2022-08-20T01:21:05.268Z,12.15
2022-08-20T01:23:45.018Z,12.68
2022-08-20T01:26:21.938Z,12.65
2022-08-20T01:28:59.369Z,12.32
2022-08-20T01:31:36.476Z,13.57
2022-08-20T01:34:16.221Z,13.50
2022-08-20T01:36:46.501Z,12.70
2022-08-20T01:42:05.241Z,13.40
2022-08-20T01:44:34.783Z,13.52
2022-08-20T01:47:12.708Z,12.35
2022-08-20T01:49:47.634Z,12.93
2022-08-20T01:52:49.414Z,12.63
2022-08-20T01:55:22.155Z,13.70
2022-08-20T01:57:58.451Z,13.60
2022-08-20T02:00:29.867Z,13.15
2022-08-20T02:03:01.877Z,12.23
2022-08-20T02:05:35.763Z,12.68
2022-08-20T02:08:07.571Z,12.77
2022-08-20T02:10:38.163Z,12.35
2022-08-20T02:13:06.973Z,13.15
2022-08-20T02:15:55.832Z,12.48
2022-08-20T02:18:28.480Z,12.63
2022-08-20T02:20:58.406Z,12.02
2022-08-20T02:23:37.149Z,11.65
2022-08-20T02:26:08.985Z,12.90
2022-08-20T02:29:01.181Z,13.02
2022-08-20T02:32:24.284Z,13.02
2022-08-20T02:35:04.400Z,12.90
2022-08-20T02:38:25.837Z,13.13
2022-08-20T02:41:19.501Z,13.38
2022-08-20T02:44:05.497Z,13.38
2022-08-20T02:46:52.300Z,12.93
2022-08-20T02:49:21.392Z,12.50
2022-08-20T02:51:51.240Z,13.20
2022-08-20T02:54:21.327Z,13.52
2022-08-20T02:56:51.785Z,13.63
2022-08-20T02:59:20.080Z,13.50
2022-08-20T03:02:00.625Z,14.27
2022-08-20T03:04:33.286Z,13.75
2022-08-20T03:07:10.577Z,13.32
2022-08-20T03:09:41.209Z,13.70
2022-08-20T03:12:11.494Z,13.95
2022-08-20T03:17:24.486Z,14.10
2022-08-20T03:19:55.937Z,13.93
2022-08-20T03:22:33.688Z,14.10
2022-08-20T03:25:02.045Z,13.85
2022-08-20T03:27:54.427Z,13.95
2022-08-20T03:30:27.122Z,14.80
2022-08-20T03:33:01.171Z,13.93
2022-08-20T03:35:39.617Z,13.50
2022-08-20T03:40:43.652Z,14.20
2022-08-20T03:43:15.244Z,13.27
2022-08-20T03:45:45.786Z,13.93
2022-08-20T03:48:21.325Z,14.40
2022-08-20T03:50:54.656Z,13.70
2022-08-20T03:53:24.325Z,14.07
2022-08-20T03:56:02.203Z,13.32
2022-08-20T03:58:34.970Z,14.57
2022-08-20T04:01:37.114Z,13.68
2022-08-20T04:03:59.317Z,13.45
2022-08-20T04:06:39.659Z,13.90
2022-08-20T04:09:11.579Z,15.95
2022-08-20T04:11:44.231Z,14.20
2022-08-20T04:14:17.402Z,14.38
2022-08-20T04:16:48.869Z,14.45
2022-08-20T04:19:26.075Z,14.18
2022-08-20T04:21:54.833Z,14.82
2022-08-20T04:24:32.082Z,14.63
2022-08-20T04:27:05.716Z,13.68
2022-08-20T04:29:38.414Z,14.73
2022-08-20T04:32:17.872Z,14.95
2022-08-20T04:34:55.605Z,18.10
2022-08-20T04:37:27.526Z,20.00
2022-08-20T04:40:14.585Z,20.20
2022-08-20T04:42:46.447Z,17.50
2022-08-20T04:45:21.321Z,16.63
2022-08-20T04:47:52.192Z,15.38
2022-08-20T04:50:25.212Z,14.75
2022-08-20T04:52:54.175Z,14.73
2022-08-20T04:55:22.822Z,13.77
2022-08-20T04:57:50.850Z,14.18
2022-08-20T05:00:18.821Z,13.60
2022-08-20T05:02:47.250Z,13.15
2022-08-20T05:05:15.306Z,12.13
2022-08-20T05:07:50.259Z,12.88
2022-08-20T05:10:22.355Z,12.65
2022-08-20T05:12:56.987Z,12.70
2022-08-20T05:15:26.982Z,11.38
2022-08-20T05:17:57.498Z,12.30
2022-08-20T05:20:26.032Z,11.43
2022-08-20T05:22:59.225Z,11.25
2022-08-20T05:25:50.103Z,11.85
2022-08-20T05:28:20.417Z,12.52
2022-08-20T05:30:49.679Z,11.85
2022-08-20T05:33:26.213Z,11.55
2022-08-20T05:36:00.293Z,10.50
2022-08-20T05:38:32.046Z,11.60
2022-08-20T05:41:01.288Z,11.80
2022-08-20T05:43:34.308Z,11.60
2022-08-20T05:46:07.678Z,12.20
2022-08-20T05:48:37.290Z,13.43
2022-08-20T05:51:12.076Z,12.82
2022-08-20T05:53:48.863Z,12.57
2022-08-20T05:56:17.205Z,12.65
2022-08-20T05:58:51.152Z,12.32
2022-08-20T06:01:22.283Z,12.35
2022-08-20T06:04:18.226Z,12.77
2022-08-20T06:06:53.154Z,12.93
2022-08-20T06:09:30.987Z,12.95
2022-08-20T06:12:06.910Z,15.20
2022-08-20T06:14:37.064Z,12.88
2022-08-20T06:17:19.062Z,12.90
2022-08-20T06:19:52.056Z,12.25
2022-08-20T06:22:27.116Z,11.27
2022-08-20T06:24:57.850Z,11.02
2022-08-20T06:27:28.790Z,11.80
2022-08-20T06:30:02.815Z,11.13
2022-08-20T06:32:33.922Z,10.70
2022-08-20T06:35:08.160Z,10.38
2022-08-20T06:37:41.705Z,10.45
2022-08-20T06:40:20.981Z,11.73
2022-08-20T06:42:59.669Z,10.02
2022-08-20T06:45:30.618Z,9.20
2022-08-20T06:48:05.417Z,8.90
2022-08-20T06:50:46.359Z,9.60
2022-08-20T06:53:18.613Z,8.93
2022-08-20T06:55:53.064Z,10.15
2022-08-20T06:58:36.990Z,10.52
2022-08-20T07:01:10.290Z,10.05
2022-08-20T07:03:42.057Z,10.55
2022-08-20T07:06:21.311Z,10.10
2022-08-20T07:08:50.505Z,8.52
2022-08-20T07:11:18.619Z,8.95
2022-08-20T07:13:46.997Z,8.95
2022-08-20T07:16:17.547Z,10.57
2022-08-20T07:18:47.201Z,10.27
2022-08-20T07:21:18.016Z,8.95
2022-08-20T07:23:53.739Z,9.52
2022-08-20T07:26:22.111Z,8.95
2022-08-20T07:28:50.068Z,8.77
2022-08-20T07:31:42.467Z,9.30
2022-08-20T07:34:12.761Z,8.90
2022-08-20T07:36:41.179Z,9.18
2022-08-20T07:39:09.346Z,8.45
2022-08-20T07:41:40.131Z,8.73
2022-08-20T07:44:10.590Z,8.82
2022-08-20T07:46:46.424Z,9.32
2022-08-20T07:49:16.977Z,8.73
2022-08-20T07:51:45.895Z,9.60
2022-08-20T07:54:22.596Z,8.27
2022-08-20T07:56:50.970Z,8.18
2022-08-20T07:59:20.639Z,9.23
2022-08-20T08:04:27.266Z,8.52
2022-08-20T08:06:58.684Z,8.00
2022-08-20T08:09:29.944Z,7.57
2022-08-20T08:12:03.608Z,8.65
2022-08-20T08:14:34.622Z,8.23
2022-08-20T08:17:08.852Z,8.07
2022-08-20T08:19:42.232Z,7.32
2022-08-20T08:22:34.239Z,9.65
2022-08-20T08:25:16.954Z,8.95
2022-08-20T08:27:49.292Z,9.88
2022-08-20T08:30:21.029Z,8.25
2022-08-20T08:33:07.706Z,9.25
2022-08-20T08:35:41.436Z,7.95
2022-08-20T08:38:14.315Z,7.82
2022-08-20T08:40:47.130Z,8.18
2022-08-20T08:43:25.449Z,6.93
2022-08-20T08:46:04.518Z,7.95
2022-08-20T08:48:37.497Z,6.95
2022-08-20T08:51:14.025Z,7.55
2022-08-20T08:53:55.423Z,6.95
2022-08-20T08:56:31.275Z,6.28
2022-08-20T08:59:08.847Z,6.22
2022-08-20T09:02:13.926Z,6.85
2022-08-20T09:04:53.269Z,6.22
2022-08-20T09:07:28.559Z,7.05
2022-08-20T09:09:59.659Z,6.22
2022-08-20T09:15:32.671Z,6.93
2022-08-20T09:18:03.614Z,6.22
2022-08-20T09:20:36.494Z,6.10
2022-08-20T09:23:08.046Z,6.07
2022-08-20T09:25:46.316Z,6.30
2022-08-20T09:28:19.058Z,6.53
2022-08-20T09:30:52.334Z,7.45
2022-08-20T09:33:33.259Z,7.25
2022-08-20T09:36:02.090Z,6.43
2022-08-20T09:38:35.675Z,6.15
2022-08-20T09:43:49.727Z,6.13
2022-08-20T09:46:28.945Z,6.00
2022-08-20T09:49:03.998Z,6.00
2022-08-20T09:51:40.993Z,5.93
2022-08-20T09:54:12.004Z,5.95
2022-08-20T09:56:46.176Z,6.03
2022-08-20T09:59:16.759Z,6.15
2022-08-20T10:02:01.145Z,6.15
2022-08-20T10:04:34.766Z,6.50
2022-08-20T10:07:17.760Z,5.47
2022-08-20T10:12:25.920Z,5.70
2022-08-20T10:14:57.082Z,5.90
2022-08-20T10:17:29.177Z,5.55
2022-08-20T10:20:03.230Z,5.53
2022-08-20T10:22:34.320Z,6.65
2022-08-20T10:25:06.903Z,5.57
2022-08-20T10:27:36.819Z,5.68
2022-08-20T10:30:10.519Z,5.65
2022-08-20T10:32:42.927Z,5.47
2022-08-20T10:35:14.403Z,5.15
2022-08-20T10:37:44.064Z,5.60
2022-08-20T10:40:15.083Z,5.88
2022-08-20T10:42:46.676Z,5.45
2022-08-20T10:45:17.114Z,5.32
2022-08-20T10:47:51.137Z,5.35
2022-08-20T10:50:23.833Z,5.18
2022-08-20T10:52:53.831Z,5.28
2022-08-20T10:55:22.639Z,5.65
2022-08-20T10:57:53.852Z,5.30
2022-08-20T11:00:25.856Z,5.03
2022-08-20T11:03:04.974Z,5.32
2022-08-20T11:05:35.935Z,6.40
2022-08-20T11:08:07.684Z,5.85
2022-08-20T11:10:40.562Z,6.90
2022-08-20T11:13:28.083Z,4.93
2022-08-20T11:15:58.271Z,5.38
2022-08-20T11:18:28.358Z,5.40
2022-08-20T11:20:59.932Z,5.93
2022-08-20T11:23:35.276Z,5.30
2022-08-20T11:26:17.381Z,5.20
2022-08-20T11:28:46.677Z,5.20
2022-08-20T11:31:17.284Z,5.47
2022-08-20T11:33:45.551Z,5.30
2022-08-20T11:36:22.022Z,5.05
2022-08-20T11:38:51.872Z,4.88
2022-08-20T11:41:21.810Z,5.18
2022-08-20T11:44:17.395Z,5.07
2022-08-20T11:46:41.324Z,6.57
2022-08-20T11:49:11.544Z,5.60
2022-08-20T11:51:49.433Z,5.78
2022-08-20T11:54:21.796Z,5.63
2022-08-20T11:56:50.981Z,4.88
2022-08-20T11:59:19.894Z,5.43
2022-08-20T12:02:02.340Z,4.88
2022-08-20T12:04:35.533Z,5.32
2022-08-20T12:07:16.107Z,5.50
2022-08-20T12:09:51.125Z,5.18
2022-08-20T12:12:24.399Z,5.47
2022-08-20T12:14:57.732Z,5.22
2022-08-20T12:17:30.024Z,5.13
2022-08-20T12:20:02.246Z,4.95
2022-08-20T12:22:33.961Z,5.53
2022-08-20T12:25:13.676Z,5.25
2022-08-20T12:27:44.531Z,5.35
2022-08-20T12:30:16.701Z,5.28
2022-08-20T12:32:45.140Z,5.25
2022-08-20T12:35:14.750Z,5.38
2022-08-20T12:37:43.758Z,5.95
2022-08-20T12:40:17.987Z,5.07
2022-08-20T12:42:57.962Z,5.30
2022-08-20T12:45:28.716Z,5.28
2022-08-20T12:48:08.561Z,5.30
2022-08-20T12:50:37.891Z,4.95
2022-08-20T12:53:15.798Z,5.43
2022-08-20T12:55:59.122Z,5.13
2022-08-20T12:58:27.415Z,5.45
2022-08-20T13:00:56.811Z,5.18
2022-08-20T13:03:32.331Z,6.68
2022-08-20T13:06:01.923Z,5.97
2022-08-20T13:08:30.266Z,5.55
2022-08-20T13:10:58.291Z,5.60
2022-08-20T13:13:26.601Z,6.28
2022-08-20T13:18:27.665Z,5.18
2022-08-20T13:20:59.162Z,5.13
2022-08-20T13:23:27.969Z,4.75
2022-08-20T13:25:56.431Z,4.85
2022-08-20T13:28:24.858Z,5.65
2022-08-20T13:30:52.841Z,6.80
2022-08-20T13:33:30.932Z,9.15
2022-08-20T13:36:03.618Z,8.00
2022-08-20T13:38:31.877Z,7.57
2022-08-20T13:41:07.744Z,6.80
2022-08-20T13:43:36.991Z,6.70
2022-08-20T13:46:09.287Z,6.45
2022-08-20T13:48:37.939Z,6.63
2022-08-20T13:51:07.065Z,6.28
2022-08-20T13:56:10.217Z,6.03
2022-08-20T13:58:53.103Z,6.88
2022-08-20T14:01:24.136Z,6.55
2022-08-20T14:04:01.951Z,6.93
2022-08-20T14:06:37.949Z,6.63
2022-08-20T14:09:10.248Z,6.50
2022-08-20T14:14:06.414Z,6.90
2022-08-20T14:16:35.140Z,6.78
2022-08-20T14:19:04.668Z,6.47
2022-08-20T14:21:39.786Z,7.28
2022-08-20T14:24:14.641Z,7.30
2022-08-20T14:26:43.852Z,7.43
2022-08-20T14:29:12.372Z,7.55
2022-08-20T14:31:41.864Z,7.43
2022-08-20T14:34:10.081Z,8.20
2022-08-20T14:36:38.998Z,6.93
2022-08-20T14:39:07.920Z,7.22
2022-08-20T14:41:41.119Z,6.80
2022-08-20T14:44:09.461Z,7.05
2022-08-20T14:46:38.625Z,6.97
2022-08-20T14:49:13.049Z,8.48
2022-08-20T14:51:41.168Z,7.45
2022-08-20T14:54:10.978Z,7.65
2022-08-20T14:56:40.573Z,7.40
2022-08-20T14:59:09.130Z,7.28
2022-08-20T15:01:37.839Z,6.93
2022-08-20T15:06:36.947Z,7.70
2022-08-20T15:09:07.726Z,8.68
2022-08-20T15:11:40.254Z,8.43
2022-08-20T15:14:11.547Z,7.68
2022-08-20T15:16:43.446Z,6.80
2022-08-20T15:19:13.409Z,6.10
2022-08-20T15:21:44.687Z,7.10
2022-08-20T15:24:19.602Z,7.10
2022-08-20T15:26:52.396Z,5.97
2022-08-20T15:31:54.110Z,6.03
2022-08-20T15:34:31.453Z,6.15
2022-08-20T15:36:59.561Z,5.65
2022-08-20T15:39:28.509Z,5.65
2022-08-20T15:41:59.767Z,5.28
2022-08-20T15:44:35.733Z,6.28
2022-08-20T15:47:19.834Z,5.53
2022-08-20T15:49:51.571Z,5.75
